sensor_id;sensor_type;location;lat;lon;timestamp;P1;durP1;ratioP1;P2;durP2;ratioP2
16246;SDS011;8231;50.866;7.944;2024-02-15T00:00:05;2.95;;;2.75;;
16246;SDS011;8231;50.866;7.944;2024-02-15T00:02:40;4.03;;;3.15;;
16246;SDS011;8231;50.866;7.944;2024-02-15T00:05:28;3.03;;;2.80;;
16246;SDS011;8231;50.866;7.944;2024-02-15T00:07:56;3.78;;;3.35;;
16246;SDS011;8231;50.866;7.944;2024-02-15T00:10:26;3.00;;;2.80;;
16246;SDS011;8231;50.866;7.944;2024-02-15T00:12:54;3.33;;;3.13;;
16246;SDS011;8231;50.866;7.944;2024-02-15T00:15:23;3.22;;;2.92;;
16246;SDS011;8231;50.866;7.944;2024-02-15T00:17:52;4.00;;;3.60;;
16246;SDS011;8231;50.866;7.944;2024-02-15T00:20:21;5.63;;;3.35;;
16246;SDS011;8231;50.866;7.944;2024-02-15T00:22:49;4.00;;;3.25;;
16246;SDS011;8231;50.866;7.944;2024-02-15T00:25:18;4.13;;;3.47;;
16246;SDS011;8231;50.866;7.944;2024-02-15T00:27:47;5.00;;;3.83;;
16246;SDS011;8231;50.866;7.944;2024-02-15T00:30:15;4.72;;;3.25;;
16246;SDS011;8231;50.866;7.944;2024-02-15T00:32:43;3.63;;;3.33;;
16246;SDS011;8231;50.866;7.944;2024-02-15T00:35:15;4.45;;;4.05;;
16246;SDS011;8231;50.866;7.944;2024-02-15T00:37:43;5.63;;;3.97;;
16246;SDS011;8231;50.866;7.944;2024-02-15T00:40:12;3.60;;;3.30;;
16246;SDS011;8231;50.866;7.944;2024-02-15T00:42:41;3.60;;;3.30;;
16246;SDS011;8231;50.866;7.944;2024-02-15T00:45:09;4.07;;;3.70;;
16246;SDS011;8231;50.866;7.944;2024-02-15T00:47:37;4.60;;;3.78;;
16246;SDS011;8231;50.866;7.944;2024-02-15T00:50:09;5.82;;;4.32;;
16246;SDS011;8231;50.866;7.944;2024-02-15T00:52:39;5.10;;;4.60;;
16246;SDS011;8231;50.866;7.944;2024-02-15T00:55:07;4.55;;;4.00;;
16246;SDS011;8231;50.866;7.944;2024-02-15T00:57:36;3.72;;;3.42;;
16246;SDS011;8231;50.866;7.944;2024-02-15T01:00:04;3.42;;;3.13;;
16246;SDS011;8231;50.866;7.944;2024-02-15T01:02:36;4.47;;;4.07;;
16246;SDS011;8231;50.866;7.944;2024-02-15T01:05:04;6.65;;;3.50;;
16246;SDS011;8231;50.866;7.944;2024-02-15T01:07:33;3.85;;;3.28;;
16246;SDS011;8231;50.866;7.944;2024-02-15T01:10:04;6.10;;;3.83;;
16246;SDS011;8231;50.866;7.944;2024-02-15T01:12:34;4.55;;;3.38;;
16246;SDS011;8231;50.866;7.944;2024-02-15T01:15:02;4.38;;;3.70;;
16246;SDS011;8231;50.866;7.944;2024-02-15T01:17:32;5.40;;;3.95;;
16246;SDS011;8231;50.866;7.944;2024-02-15T01:20:01;5.65;;;4.13;;
16246;SDS011;8231;50.866;7.944;2024-02-15T01:22:29;3.92;;;3.63;;
16246;SDS011;8231;50.866;7.944;2024-02-15T01:24:58;4.70;;;4.20;;
16246;SDS011;8231;50.866;7.944;2024-02-15T01:27:27;6.28;;;5.55;;
16246;SDS011;8231;50.866;7.944;2024-02-15T01:29:57;4.22;;;3.80;;
16246;SDS011;8231;50.866;7.944;2024-02-15T01:32:25;4.10;;;3.70;;
16246;SDS011;8231;50.866;7.944;2024-02-15T01:34:54;4.40;;;3.35;;
16246;SDS011;8231;50.866;7.944;2024-02-15T01:37:22;7.78;;;6.35;;
16246;SDS011;8231;50.866;7.944;2024-02-15T01:39:51;4.70;;;4.28;;
16246;SDS011;8231;50.866;7.944;2024-02-15T01:42:19;6.30;;;5.60;;
16246;SDS011;8231;50.866;7.944;2024-02-15T01:44:49;6.05;;;4.85;;
16246;SDS011;8231;50.866;7.944;2024-02-15T01:47:19;6.40;;;5.05;;
16246;SDS011;8231;50.866;7.944;2024-02-15T01:49:49;6.05;;;3.80;;
16246;SDS011;8231;50.866;7.944;2024-02-15T01:52:20;3.72;;;3.42;;
16246;SDS011;8231;50.866;7.944;2024-02-15T01:54:50;6.57;;;5.10;;
16246;SDS011;8231;50.866;7.944;2024-02-15T01:57:19;5.80;;;4.75;;
16246;SDS011;8231;50.866;7.944;2024-02-15T01:59:50;5.65;;;4.43;;
16246;SDS011;8231;50.866;7.944;2024-02-15T02:02:21;7.15;;;4.78;;
16246;SDS011;8231;50.866;7.944;2024-02-15T02:04:52;4.40;;;4.00;;
16246;SDS011;8231;50.866;7.944;2024-02-15T02:07:21;5.97;;;4.53;;
16246;SDS011;8231;50.866;7.944;2024-02-15T02:09:49;5.72;;;4.18;;
16246;SDS011;8231;50.866;7.944;2024-02-15T02:12:18;5.05;;;4.55;;
16246;SDS011;8231;50.866;7.944;2024-02-15T02:14:46;6.30;;;4.60;;
16246;SDS011;8231;50.866;7.944;2024-02-15T02:17:17;5.25;;;4.75;;
16246;SDS011;8231;50.866;7.944;2024-02-15T02:19:47;5.10;;;4.70;;
16246;SDS011;8231;50.866;7.944;2024-02-15T02:22:16;7.55;;;5.10;;
16246;SDS011;8231;50.866;7.944;2024-02-15T02:25:03;6.10;;;4.03;;
16246;SDS011;8231;50.866;7.944;2024-02-15T02:27:35;7.53;;;5.03;;
16246;SDS011;8231;50.866;7.944;2024-02-15T02:30:04;4.53;;;4.03;;
16246;SDS011;8231;50.866;7.944;2024-02-15T02:32:36;4.70;;;4.25;;
16246;SDS011;8231;50.866;7.944;2024-02-15T02:35:05;6.68;;;5.38;;
16246;SDS011;8231;50.866;7.944;2024-02-15T02:37:34;7.53;;;5.85;;
16246;SDS011;8231;50.866;7.944;2024-02-15T02:40:05;6.10;;;5.50;;
16246;SDS011;8231;50.866;7.944;2024-02-15T02:42:35;5.75;;;4.63;;
16246;SDS011;8231;50.866;7.944;2024-02-15T02:45:04;7.03;;;5.10;;
16246;SDS011;8231;50.866;7.944;2024-02-15T02:47:33;7.20;;;4.78;;
16246;SDS011;8231;50.866;7.944;2024-02-15T02:50:01;5.85;;;4.25;;
16246;SDS011;8231;50.866;7.944;2024-02-15T02:52:30;7.15;;;5.25;;
16246;SDS011;8231;50.866;7.944;2024-02-15T02:54:58;4.90;;;4.43;;
16246;SDS011;8231;50.866;7.944;2024-02-15T02:57:28;4.93;;;4.40;;
16246;SDS011;8231;50.866;7.944;2024-02-15T02:59:58;5.05;;;4.30;;
16246;SDS011;8231;50.866;7.944;2024-02-15T03:02:26;5.00;;;3.95;;
16246;SDS011;8231;50.866;7.944;2024-02-15T03:04:56;8.32;;;5.22;;
16246;SDS011;8231;50.866;7.944;2024-02-15T03:07:26;6.18;;;5.28;;
16246;SDS011;8231;50.866;7.944;2024-02-15T03:09:55;4.75;;;3.85;;
16246;SDS011;8231;50.866;7.944;2024-02-15T03:12:23;4.50;;;4.10;;
16246;SDS011;8231;50.866;7.944;2024-02-15T03:14:54;4.07;;;3.67;;
16246;SDS011;8231;50.866;7.944;2024-02-15T03:17:23;4.53;;;3.72;;
16246;SDS011;8231;50.866;7.944;2024-02-15T03:19:51;5.20;;;4.30;;
16246;SDS011;8231;50.866;7.944;2024-02-15T03:22:19;5.55;;;4.15;;
16246;SDS011;8231;50.866;7.944;2024-02-15T03:24:51;9.35;;;4.30;;
16246;SDS011;8231;50.866;7.944;2024-02-15T03:27:21;5.50;;;3.70;;
16246;SDS011;8231;50.866;7.944;2024-02-15T03:29:50;3.92;;;3.47;;
16246;SDS011;8231;50.866;7.944;2024-02-15T03:32:20;4.32;;;3.92;;
16246;SDS011;8231;50.866;7.944;2024-02-15T03:34:48;5.20;;;4.15;;
16246;SDS011;8231;50.866;7.944;2024-02-15T03:37:18;4.28;;;3.67;;
16246;SDS011;8231;50.866;7.944;2024-02-15T03:39:47;8.95;;;3.88;;
16246;SDS011;8231;50.866;7.944;2024-02-15T03:42:15;4.20;;;3.80;;
16246;SDS011;8231;50.866;7.944;2024-02-15T03:44:43;3.47;;;2.97;;
16246;SDS011;8231;50.866;7.944;2024-02-15T03:47:11;4.18;;;3.03;;
16246;SDS011;8231;50.866;7.944;2024-02-15T03:49:41;5.93;;;4.20;;
16246;SDS011;8231;50.866;7.944;2024-02-15T03:52:09;4.25;;;3.58;;
16246;SDS011;8231;50.866;7.944;2024-02-15T03:54:38;6.18;;;4.15;;
16246;SDS011;8231;50.866;7.944;2024-02-15T03:57:09;6.38;;;5.30;;
16246;SDS011;8231;50.866;7.944;2024-02-15T03:59:38;5.18;;;4.60;;
16246;SDS011;8231;50.866;7.944;2024-02-15T04:02:07;3.97;;;3.58;;
16246;SDS011;8231;50.866;7.944;2024-02-15T04:04:42;4.22;;;3.83;;
16246;SDS011;8231;50.866;7.944;2024-02-15T04:07:13;4.53;;;3.92;;
16246;SDS011;8231;50.866;7.944;2024-02-15T04:09:42;7.18;;;4.63;;
16246;SDS011;8231;50.866;7.944;2024-02-15T04:12:11;7.00;;;6.03;;
16246;SDS011;8231;50.866;7.944;2024-02-15T04:14:40;5.13;;;4.18;;
16246;SDS011;8231;50.866;7.944;2024-02-15T04:17:11;5.38;;;3.83;;
16246;SDS011;8231;50.866;7.944;2024-02-15T04:19:40;4.63;;;4.22;;
16246;SDS011;8231;50.866;7.944;2024-02-15T04:22:13;5.85;;;4.88;;
16246;SDS011;8231;50.866;7.944;2024-02-15T04:24:43;4.43;;;4.00;;
16246;SDS011;8231;50.866;7.944;2024-02-15T04:27:12;6.18;;;4.55;;
16246;SDS011;8231;50.866;7.944;2024-02-15T04:29:41;4.45;;;4.05;;
16246;SDS011;8231;50.866;7.944;2024-02-15T04:32:10;4.97;;;4.00;;
16246;SDS011;8231;50.866;7.944;2024-02-15T04:34:40;6.13;;;4.10;;
16246;SDS011;8231;50.866;7.944;2024-02-15T04:37:09;6.88;;;4.22;;
16246;SDS011;8231;50.866;7.944;2024-02-15T04:39:37;5.03;;;4.63;;
16246;SDS011;8231;50.866;7.944;2024-02-15T04:42:05;6.85;;;4.43;;
16246;SDS011;8231;50.866;7.944;2024-02-15T04:44:37;4.90;;;4.20;;
16246;SDS011;8231;50.866;7.944;2024-02-15T04:47:06;4.88;;;4.25;;
16246;SDS011;8231;50.866;7.944;2024-02-15T04:49:35;6.28;;;4.40;;
16246;SDS011;8231;50.866;7.944;2024-02-15T04:52:05;4.50;;;3.78;;
16246;SDS011;8231;50.866;7.944;2024-02-15T04:54:35;6.15;;;4.20;;
16246;SDS011;8231;50.866;7.944;2024-02-15T04:57:04;4.43;;;4.00;;
16246;SDS011;8231;50.866;7.944;2024-02-15T04:59:35;4.28;;;3.88;;
16246;SDS011;8231;50.866;7.944;2024-02-15T05:02:03;4.20;;;3.80;;
16246;SDS011;8231;50.866;7.944;2024-02-15T05:04:34;5.05;;;3.63;;
16246;SDS011;8231;50.866;7.944;2024-02-15T05:07:03;5.38;;;3.70;;
16246;SDS011;8231;50.866;7.944;2024-02-15T05:09:31;3.80;;;3.50;;
16246;SDS011;8231;50.866;7.944;2024-02-15T05:12:02;3.97;;;3.35;;
16246;SDS011;8231;50.866;7.944;2024-02-15T05:14:31;3.78;;;3.35;;
16246;SDS011;8231;50.866;7.944;2024-02-15T05:16:59;4.25;;;3.85;;
16246;SDS011;8231;50.866;7.944;2024-02-15T05:19:27;4.47;;;3.85;;
16246;SDS011;8231;50.866;7.944;2024-02-15T05:21:57;4.05;;;3.60;;
16246;SDS011;8231;50.866;7.944;2024-02-15T05:24:25;3.95;;;3.65;;
16246;SDS011;8231;50.866;7.944;2024-02-15T05:26:53;4.75;;;4.35;;
16246;SDS011;8231;50.866;7.944;2024-02-15T05:29:22;4.90;;;4.50;;
16246;SDS011;8231;50.866;7.944;2024-02-15T05:31:50;5.03;;;3.72;;
16246;SDS011;8231;50.866;7.944;2024-02-15T05:34:20;8.57;;;5.18;;
16246;SDS011;8231;50.866;7.944;2024-02-15T05:36:49;3.95;;;3.53;;
16246;SDS011;8231;50.866;7.944;2024-02-15T05:39:18;3.75;;;3.38;;
16246;SDS011;8231;50.866;7.944;2024-02-15T05:41:49;3.70;;;3.17;;
16246;SDS011;8231;50.866;7.944;2024-02-15T05:44:17;6.22;;;3.38;;
16246;SDS011;8231;50.866;7.944;2024-02-15T05:46:48;4.57;;;3.00;;
16246;SDS011;8231;50.866;7.944;2024-02-15T05:49:16;6.20;;;3.50;;
16246;SDS011;8231;50.866;7.944;2024-02-15T05:51:46;5.20;;;3.70;;
16246;SDS011;8231;50.866;7.944;2024-02-15T05:54:14;3.80;;;3.50;;
16246;SDS011;8231;50.866;7.944;2024-02-15T05:56:44;3.70;;;3.38;;
16246;SDS011;8231;50.866;7.944;2024-02-15T05:59:18;5.25;;;3.75;;
16246;SDS011;8231;50.866;7.944;2024-02-15T06:01:49;4.15;;;3.72;;
16246;SDS011;8231;50.866;7.944;2024-02-15T06:04:17;8.40;;;4.70;;
16246;SDS011;8231;50.866;7.944;2024-02-15T06:06:46;3.83;;;3.53;;
16246;SDS011;8231;50.866;7.944;2024-02-15T06:09:17;5.65;;;4.35;;
16246;SDS011;8231;50.866;7.944;2024-02-15T06:11:48;4.70;;;4.28;;
16246;SDS011;8231;50.866;7.944;2024-02-15T06:14:18;6.18;;;5.35;;
16246;SDS011;8231;50.866;7.944;2024-02-15T06:16:46;4.50;;;4.10;;
16246;SDS011;8231;50.866;7.944;2024-02-15T06:19:16;5.28;;;4.78;;
16246;SDS011;8231;50.866;7.944;2024-02-15T06:21:44;5.57;;;4.53;;
16246;SDS011;8231;50.866;7.944;2024-02-15T06:24:13;4.25;;;3.85;;
16246;SDS011;8231;50.866;7.944;2024-02-15T06:26:41;3.90;;;3.55;;
16246;SDS011;8231;50.866;7.944;2024-02-15T06:29:14;4.70;;;4.30;;
16246;SDS011;8231;50.866;7.944;2024-02-15T06:31:59;4.40;;;4.05;;
16246;SDS011;8231;50.866;7.944;2024-02-15T06:34:46;4.90;;;4.50;;
16246;SDS011;8231;50.866;7.944;2024-02-15T06:37:35;4.97;;;4.57;;
16246;SDS011;8231;50.866;7.944;2024-02-15T06:40:21;4.53;;;3.97;;
16246;SDS011;8231;50.866;7.944;2024-02-15T06:42:49;5.93;;;4.28;;
16246;SDS011;8231;50.866;7.944;2024-02-15T06:45:18;4.35;;;4.03;;
16246;SDS011;8231;50.866;7.944;2024-02-15T06:47:47;4.93;;;4.53;;
16246;SDS011;8231;50.866;7.944;2024-02-15T06:50:17;5.75;;;4.32;;
16246;SDS011;8231;50.866;7.944;2024-02-15T06:52:46;4.38;;;4.07;;
16246;SDS011;8231;50.866;7.944;2024-02-15T06:55:15;5.13;;;4.32;;
16246;SDS011;8231;50.866;7.944;2024-02-15T06:57:45;5.15;;;4.75;;
16246;SDS011;8231;50.866;7.944;2024-02-15T07:00:14;4.50;;;4.18;;
16246;SDS011;8231;50.866;7.944;2024-02-15T07:02:45;4.53;;;4.13;;
16246;SDS011;8231;50.866;7.944;2024-02-15T07:05:15;4.40;;;4.00;;
16246;SDS011;8231;50.866;7.944;2024-02-15T07:07:45;4.93;;;4.15;;
16246;SDS011;8231;50.866;7.944;2024-02-15T07:10:13;4.72;;;4.28;;
16246;SDS011;8231;50.866;7.944;2024-02-15T07:12:42;4.30;;;4.00;;
16246;SDS011;8231;50.866;7.944;2024-02-15T07:15:11;4.07;;;3.78;;
16246;SDS011;8231;50.866;7.944;2024-02-15T07:17:39;6.35;;;3.60;;
16246;SDS011;8231;50.866;7.944;2024-02-15T07:20:10;3.53;;;3.22;;
16246;SDS011;8231;50.866;7.944;2024-02-15T07:22:42;3.80;;;3.17;;
16246;SDS011;8231;50.866;7.944;2024-02-15T07:25:11;5.15;;;3.72;;
16246;SDS011;8231;50.866;7.944;2024-02-15T07:27:40;4.93;;;3.80;;
16246;SDS011;8231;50.866;7.944;2024-02-15T07:30:09;3.25;;;2.95;;
16246;SDS011;8231;50.866;7.944;2024-02-15T07:32:38;3.40;;;3.13;;
16246;SDS011;8231;50.866;7.944;2024-02-15T07:35:07;6.80;;;2.92;;
16246;SDS011;8231;50.866;7.944;2024-02-15T07:37:36;4.25;;;3.45;;
16246;SDS011;8231;50.866;7.944;2024-02-15T07:40:06;3.00;;;2.80;;
16246;SDS011;8231;50.866;7.944;2024-02-15T07:42:35;3.30;;;3.00;;
16246;SDS011;8231;50.866;7.944;2024-02-15T07:45:03;3.45;;;2.88;;
16246;SDS011;8231;50.866;7.944;2024-02-15T07:47:33;6.07;;;3.00;;
16246;SDS011;8231;50.866;7.944;2024-02-15T07:50:01;2.95;;;2.75;;
16246;SDS011;8231;50.866;7.944;2024-02-15T07:52:32;3.20;;;2.90;;
16246;SDS011;8231;50.866;7.944;2024-02-15T07:55:00;3.33;;;2.88;;
16246;SDS011;8231;50.866;7.944;2024-02-15T07:57:36;3.67;;;2.83;;
16246;SDS011;8231;50.866;7.944;2024-02-15T08:00:05;3.17;;;2.97;;
16246;SDS011;8231;50.866;7.944;2024-02-15T08:02:37;3.40;;;3.10;;
16246;SDS011;8231;50.866;7.944;2024-02-15T08:05:07;3.60;;;3.30;;
16246;SDS011;8231;50.866;7.944;2024-02-15T08:07:37;5.85;;;4.47;;
16246;SDS011;8231;50.866;7.944;2024-02-15T08:10:08;6.13;;;3.90;;
16246;SDS011;8231;50.866;7.944;2024-02-15T08:12:41;7.28;;;4.28;;
16246;SDS011;8231;50.866;7.944;2024-02-15T08:15:10;5.50;;;4.60;;
16246;SDS011;8231;50.866;7.944;2024-02-15T08:17:40;4.55;;;3.90;;
16246;SDS011;8231;50.866;7.944;2024-02-15T08:20:09;5.45;;;4.95;;
16246;SDS011;8231;50.866;7.944;2024-02-15T08:22:38;5.68;;;4.63;;
16246;SDS011;8231;50.866;7.944;2024-02-15T08:25:08;4.93;;;4.53;;
16246;SDS011;8231;50.866;7.944;2024-02-15T08:27:37;5.82;;;4.93;;
16246;SDS011;8231;50.866;7.944;2024-02-15T08:30:11;9.27;;;6.90;;
16246;SDS011;8231;50.866;7.944;2024-02-15T08:32:40;6.00;;;5.50;;
16246;SDS011;8231;50.866;7.944;2024-02-15T08:35:09;8.48;;;6.93;;
16246;SDS011;8231;50.866;7.944;2024-02-15T08:37:39;6.80;;;5.60;;
16246;SDS011;8231;50.866;7.944;2024-02-15T08:40:08;7.93;;;6.38;;
16246;SDS011;8231;50.866;7.944;2024-02-15T08:42:39;7.35;;;5.50;;
16246;SDS011;8231;50.866;7.944;2024-02-15T08:45:11;6.03;;;5.20;;
16246;SDS011;8231;50.866;7.944;2024-02-15T08:47:40;8.73;;;6.30;;
16246;SDS011;8231;50.866;7.944;2024-02-15T08:50:09;8.20;;;6.10;;
16246;SDS011;8231;50.866;7.944;2024-02-15T08:52:39;9.57;;;7.10;;
16246;SDS011;8231;50.866;7.944;2024-02-15T08:55:08;7.82;;;6.03;;
16246;SDS011;8231;50.866;7.944;2024-02-15T08:57:37;6.32;;;5.72;;
16246;SDS011;8231;50.866;7.944;2024-02-15T09:00:07;6.78;;;5.10;;
16246;SDS011;8231;50.866;7.944;2024-02-15T09:02:42;6.72;;;3.80;;
16246;SDS011;8231;50.866;7.944;2024-02-15T09:05:11;8.15;;;2.75;;
16246;SDS011;8231;50.866;7.944;2024-02-15T09:07:41;3.15;;;2.08;;
16246;SDS011;8231;50.866;7.944;2024-02-15T09:10:10;5.00;;;2.70;;
16246;SDS011;8231;50.866;7.944;2024-02-15T09:12:38;7.15;;;2.67;;
16246;SDS011;8231;50.866;7.944;2024-02-15T09:15:08;4.53;;;2.13;;
16246;SDS011;8231;50.866;7.944;2024-02-15T09:17:37;5.15;;;3.10;;
16246;SDS011;8231;50.866;7.944;2024-02-15T09:20:08;4.68;;;2.50;;
16246;SDS011;8231;50.866;7.944;2024-02-15T09:22:41;4.15;;;2.13;;
16246;SDS011;8231;50.866;7.944;2024-02-15T09:25:10;4.72;;;2.20;;
16246;SDS011;8231;50.866;7.944;2024-02-15T09:27:39;7.68;;;2.38;;
16246;SDS011;8231;50.866;7.944;2024-02-15T09:30:08;3.35;;;2.00;;
16246;SDS011;8231;50.866;7.944;2024-02-15T09:32:36;4.38;;;2.05;;
16246;SDS011;8231;50.866;7.944;2024-02-15T09:35:05;3.75;;;1.70;;
16246;SDS011;8231;50.866;7.944;2024-02-15T09:37:42;3.38;;;1.75;;
16246;SDS011;8231;50.866;7.944;2024-02-15T09:40:12;5.47;;;1.90;;
16246;SDS011;8231;50.866;7.944;2024-02-15T09:42:42;5.57;;;2.03;;
16246;SDS011;8231;50.866;7.944;2024-02-15T09:45:12;5.90;;;1.88;;
16246;SDS011;8231;50.866;7.944;2024-02-15T09:47:42;4.75;;;2.30;;
16246;SDS011;8231;50.866;7.944;2024-02-15T09:50:12;5.80;;;2.45;;
16246;SDS011;8231;50.866;7.944;2024-02-15T09:52:43;3.55;;;1.73;;
16246;SDS011;8231;50.866;7.944;2024-02-15T09:55:12;7.30;;;2.03;;
16246;SDS011;8231;50.866;7.944;2024-02-15T09:57:42;2.67;;;2.13;;
16246;SDS011;8231;50.866;7.944;2024-02-15T10:00:13;6.20;;;3.65;;
16246;SDS011;8231;50.866;7.944;2024-02-15T10:02:46;6.93;;;2.80;;
16246;SDS011;8231;50.866;7.944;2024-02-15T10:05:17;5.95;;;3.00;;
16246;SDS011;8231;50.866;7.944;2024-02-15T10:07:46;3.75;;;3.08;;
16246;SDS011;8231;50.866;7.944;2024-02-15T10:10:14;3.50;;;2.78;;
16246;SDS011;8231;50.866;7.944;2024-02-15T10:12:45;4.90;;;3.10;;
16246;SDS011;8231;50.866;7.944;2024-02-15T10:15:26;7.05;;;4.43;;
16246;SDS011;8231;50.866;7.944;2024-02-15T10:17:59;4.43;;;2.53;;
16246;SDS011;8231;50.866;7.944;2024-02-15T10:20:30;3.08;;;2.70;;
16246;SDS011;8231;50.866;7.944;2024-02-15T10:23:10;6.07;;;5.03;;
16246;SDS011;8231;50.866;7.944;2024-02-15T10:25:39;5.15;;;3.95;;
16246;SDS011;8231;50.866;7.944;2024-02-15T10:28:08;5.47;;;2.50;;
16246;SDS011;8231;50.866;7.944;2024-02-15T10:30:38;2.72;;;1.92;;
16246;SDS011;8231;50.866;7.944;2024-02-15T10:33:10;2.20;;;1.80;;
16246;SDS011;8231;50.866;7.944;2024-02-15T10:35:46;3.33;;;2.28;;
16246;SDS011;8231;50.866;7.944;2024-02-15T10:38:15;4.00;;;1.58;;
16246;SDS011;8231;50.866;7.944;2024-02-15T10:40:45;6.60;;;3.20;;
16246;SDS011;8231;50.866;7.944;2024-02-15T10:43:14;4.00;;;2.08;;
16246;SDS011;8231;50.866;7.944;2024-02-15T10:45:44;2.13;;;1.50;;
16246;SDS011;8231;50.866;7.944;2024-02-15T10:48:12;3.83;;;1.60;;
16246;SDS011;8231;50.866;7.944;2024-02-15T10:50:41;2.95;;;1.48;;
16246;SDS011;8231;50.866;7.944;2024-02-15T10:53:15;3.28;;;1.67;;
16246;SDS011;8231;50.866;7.944;2024-02-15T10:55:53;3.08;;;1.50;;
16246;SDS011;8231;50.866;7.944;2024-02-15T10:58:26;1.83;;;1.13;;
16246;SDS011;8231;50.866;7.944;2024-02-15T11:01:02;1.90;;;1.13;;
16246;SDS011;8231;50.866;7.944;2024-02-15T11:03:36;5.13;;;1.67;;
16246;SDS011;8231;50.866;7.944;2024-02-15T11:06:13;2.30;;;1.27;;
16246;SDS011;8231;50.866;7.944;2024-02-15T11:08:45;1.98;;;1.30;;
16246;SDS011;8231;50.866;7.944;2024-02-15T11:11:14;4.47;;;1.60;;
16246;SDS011;8231;50.866;7.944;2024-02-15T11:13:42;2.60;;;1.23;;
16246;SDS011;8231;50.866;7.944;2024-02-15T11:16:11;1.83;;;1.08;;
16246;SDS011;8231;50.866;7.944;2024-02-15T11:19:09;2.70;;;1.40;;
16246;SDS011;8231;50.866;7.944;2024-02-15T11:21:53;2.20;;;1.23;;
16246;SDS011;8231;50.866;7.944;2024-02-15T11:24:27;3.30;;;1.35;;
16246;SDS011;8231;50.866;7.944;2024-02-15T11:26:58;2.83;;;1.35;;
16246;SDS011;8231;50.866;7.944;2024-02-15T11:29:47;2.63;;;1.30;;
16246;SDS011;8231;50.866;7.944;2024-02-15T11:35:07;3.92;;;1.45;;
16246;SDS011;8231;50.866;7.944;2024-02-15T11:40:59;3.15;;;1.33;;
16246;SDS011;8231;50.866;7.944;2024-02-15T11:43:48;3.05;;;1.38;;
16246;SDS011;8231;50.866;7.944;2024-02-15T11:46:22;4.60;;;1.70;;
16246;SDS011;8231;50.866;7.944;2024-02-15T11:48:58;2.33;;;1.58;;
16246;SDS011;8231;50.866;7.944;2024-02-15T11:51:28;4.72;;;1.52;;
16246;SDS011;8231;50.866;7.944;2024-02-15T11:54:01;1.48;;;1.23;;
16246;SDS011;8231;50.866;7.944;2024-02-15T11:56:34;4.07;;;2.08;;
16246;SDS011;8231;50.866;7.944;2024-02-15T11:59:37;4.03;;;1.98;;
16246;SDS011;8231;50.866;7.944;2024-02-15T12:02:19;1.80;;;1.20;;
16246;SDS011;8231;50.866;7.944;2024-02-15T12:05:05;2.45;;;1.50;;
16246;SDS011;8231;50.866;7.944;2024-02-15T12:07:52;2.42;;;1.33;;
16246;SDS011;8231;50.866;7.944;2024-02-15T12:10:38;3.80;;;1.45;;
16246;SDS011;8231;50.866;7.944;2024-02-15T12:13:25;2.50;;;1.42;;
16246;SDS011;8231;50.866;7.944;2024-02-15T12:16:15;1.98;;;1.45;;
16246;SDS011;8231;50.866;7.944;2024-02-15T12:19:00;3.30;;;1.40;;
16246;SDS011;8231;50.866;7.944;2024-02-15T12:21:30;1.20;;;0.90;;
16246;SDS011;8231;50.866;7.944;2024-02-15T12:24:00;3.80;;;1.27;;
16246;SDS011;8231;50.866;7.944;2024-02-15T12:26:32;3.47;;;2.08;;
16246;SDS011;8231;50.866;7.944;2024-02-15T12:29:03;3.10;;;1.77;;
16246;SDS011;8231;50.866;7.944;2024-02-15T12:31:35;2.60;;;1.42;;
16246;SDS011;8231;50.866;7.944;2024-02-15T12:34:05;3.17;;;1.30;;
16246;SDS011;8231;50.866;7.944;2024-02-15T12:36:34;2.85;;;1.35;;
16246;SDS011;8231;50.866;7.944;2024-02-15T12:39:04;4.68;;;1.42;;
16246;SDS011;8231;50.866;7.944;2024-02-15T12:41:38;2.17;;;1.23;;
16246;SDS011;8231;50.866;7.944;2024-02-15T12:44:09;2.25;;;1.27;;
16246;SDS011;8231;50.866;7.944;2024-02-15T12:46:38;4.18;;;1.70;;
16246;SDS011;8231;50.866;7.944;2024-02-15T12:49:08;2.28;;;1.77;;
16246;SDS011;8231;50.866;7.944;2024-02-15T12:51:41;4.68;;;1.20;;
16246;SDS011;8231;50.866;7.944;2024-02-15T12:54:19;3.65;;;1.60;;
16246;SDS011;8231;50.866;7.944;2024-02-15T12:56:48;4.47;;;1.55;;
16246;SDS011;8231;50.866;7.944;2024-02-15T12:59:19;2.72;;;1.20;;
16246;SDS011;8231;50.866;7.944;2024-02-15T13:01:47;3.42;;;1.40;;
16246;SDS011;8231;50.866;7.944;2024-02-15T13:04:21;1.60;;;1.10;;
16246;SDS011;8231;50.866;7.944;2024-02-15T13:06:50;2.35;;;1.23;;
16246;SDS011;8231;50.866;7.944;2024-02-15T13:09:19;3.10;;;1.42;;
16246;SDS011;8231;50.866;7.944;2024-02-15T13:11:48;1.90;;;1.35;;
16246;SDS011;8231;50.866;7.944;2024-02-15T13:14:17;1.67;;;1.52;;
16246;SDS011;8231;50.866;7.944;2024-02-15T13:16:47;4.13;;;1.55;;
16246;SDS011;8231;50.866;7.944;2024-02-15T13:19:15;4.97;;;2.05;;
16246;SDS011;8231;50.866;7.944;2024-02-15T13:21:45;3.55;;;1.30;;
16246;SDS011;8231;50.866;7.944;2024-02-15T13:24:20;1.30;;;1.20;;
16246;SDS011;8231;50.866;7.944;2024-02-15T13:26:52;2.92;;;1.40;;
16246;SDS011;8231;50.866;7.944;2024-02-15T13:29:25;2.80;;;1.75;;
16246;SDS011;8231;50.866;7.944;2024-02-15T13:31:54;3.80;;;1.60;;
16246;SDS011;8231;50.866;7.944;2024-02-15T13:34:22;2.55;;;1.40;;
16246;SDS011;8231;50.866;7.944;2024-02-15T13:36:51;2.47;;;1.30;;
16246;SDS011;8231;50.866;7.944;2024-02-15T13:39:21;3.50;;;1.63;;
16246;SDS011;8231;50.866;7.944;2024-02-15T13:41:49;4.38;;;1.77;;
16246;SDS011;8231;50.866;7.944;2024-02-15T13:44:18;2.60;;;1.70;;
16246;SDS011;8231;50.866;7.944;2024-02-15T13:46:47;3.30;;;1.50;;
16246;SDS011;8231;50.866;7.944;2024-02-15T13:49:17;2.17;;;1.35;;
16246;SDS011;8231;50.866;7.944;2024-02-15T13:51:57;4.60;;;1.38;;
16246;SDS011;8231;50.866;7.944;2024-02-15T13:54:29;3.08;;;1.50;;
16246;SDS011;8231;50.866;7.944;2024-02-15T13:56:57;3.95;;;1.90;;
16246;SDS011;8231;50.866;7.944;2024-02-15T13:59:26;2.58;;;1.45;;
16246;SDS011;8231;50.866;7.944;2024-02-15T14:01:55;3.25;;;1.30;;
16246;SDS011;8231;50.866;7.944;2024-02-15T14:04:25;2.53;;;1.42;;
16246;SDS011;8231;50.866;7.944;2024-02-15T14:06:53;3.42;;;1.58;;
16246;SDS011;8231;50.866;7.944;2024-02-15T14:09:23;3.05;;;1.60;;
16246;SDS011;8231;50.866;7.944;2024-02-15T14:11:53;4.82;;;1.60;;
16246;SDS011;8231;50.866;7.944;2024-02-15T14:14:21;2.70;;;1.40;;
16246;SDS011;8231;50.866;7.944;2024-02-15T14:16:48;2.60;;;1.80;;
16246;SDS011;8231;50.866;7.944;2024-02-15T14:19:16;3.75;;;1.67;;
16246;SDS011;8231;50.866;7.944;2024-02-15T14:21:46;3.30;;;1.73;;
16246;SDS011;8231;50.866;7.944;2024-02-15T14:24:14;3.40;;;1.73;;
16246;SDS011;8231;50.866;7.944;2024-02-15T14:26:45;2.15;;;1.60;;
16246;SDS011;8231;50.866;7.944;2024-02-15T14:29:13;5.32;;;2.10;;
16246;SDS011;8231;50.866;7.944;2024-02-15T14:31:47;2.90;;;1.63;;
16246;SDS011;8231;50.866;7.944;2024-02-15T14:34:32;2.67;;;1.98;;
16246;SDS011;8231;50.866;7.944;2024-02-15T14:37:04;2.40;;;1.73;;
16246;SDS011;8231;50.866;7.944;2024-02-15T14:39:32;1.98;;;1.60;;
16246;SDS011;8231;50.866;7.944;2024-02-15T14:42:01;6.97;;;2.10;;
16246;SDS011;8231;50.866;7.944;2024-02-15T14:44:44;4.10;;;1.98;;
16246;SDS011;8231;50.866;7.944;2024-02-15T14:47:12;2.97;;;2.20;;
16246;SDS011;8231;50.866;7.944;2024-02-15T14:49:40;3.83;;;1.85;;
16246;SDS011;8231;50.866;7.944;2024-02-15T14:52:10;2.33;;;1.77;;
16246;SDS011;8231;50.866;7.944;2024-02-15T14:54:38;3.35;;;2.10;;
16246;SDS011;8231;50.866;7.944;2024-02-15T14:57:07;3.20;;;1.83;;
16246;SDS011;8231;50.866;7.944;2024-02-15T14:59:35;3.10;;;2.08;;
16246;SDS011;8231;50.866;7.944;2024-02-15T15:02:05;4.78;;;1.95;;
16246;SDS011;8231;50.866;7.944;2024-02-15T15:04:37;4.35;;;1.88;;
16246;SDS011;8231;50.866;7.944;2024-02-15T15:07:36;3.72;;;1.63;;
16246;SDS011;8231;50.866;7.944;2024-02-15T15:10:21;5.30;;;1.90;;
16246;SDS011;8231;50.866;7.944;2024-02-15T15:13:07;4.82;;;1.92;;
16246;SDS011;8231;50.866;7.944;2024-02-15T15:15:36;2.60;;;1.50;;
16246;SDS011;8231;50.866;7.944;2024-02-15T15:18:06;4.18;;;2.00;;
16246;SDS011;8231;50.866;7.944;2024-02-15T15:20:36;3.42;;;1.60;;
16246;SDS011;8231;50.866;7.944;2024-02-15T15:23:05;3.00;;;1.63;;
16246;SDS011;8231;50.866;7.944;2024-02-15T15:25:34;3.38;;;1.50;;
16246;SDS011;8231;50.866;7.944;2024-02-15T15:28:04;2.45;;;1.40;;